createdAt,value
2022-10-13T00:00:43.808Z,2.58
2022-10-13T00:03:10.440Z,2.03
2022-10-13T00:05:41.876Z,2.05
2022-10-13T00:08:09.359Z,2.28
2022-10-13T00:10:38.236Z,2.28
2022-10-13T00:13:05.427Z,2.22
2022-10-13T00:15:32.225Z,2.25
2022-10-13T00:17:58.790Z,2.55
2022-10-13T00:20:25.310Z,2.60
2022-10-13T00:22:51.880Z,2.53
2022-10-13T00:25:18.422Z,2.55
2022-10-13T00:27:44.972Z,2.15
2022-10-13T00:30:11.712Z,2.67
2022-10-13T00:32:38.250Z,2.60
2022-10-13T00:35:05.219Z,2.50
2022-10-13T00:37:31.764Z,2.13
2022-10-13T00:39:58.337Z,2.50
2022-10-13T00:42:26.327Z,2.15
2022-10-13T00:44:55.634Z,1.85
2022-10-13T00:47:22.356Z,2.60
2022-10-13T00:49:49.905Z,2.58
2022-10-13T00:52:43.503Z,2.72
2022-10-13T00:55:13.588Z,2.28
2022-10-13T00:57:43.731Z,1.95
2022-10-13T01:00:11.265Z,1.85
2022-10-13T01:02:38.576Z,2.22
2022-10-13T01:05:07.348Z,2.88
2022-10-13T01:07:35.750Z,2.33
2022-10-13T01:10:03.932Z,2.33
2022-10-13T01:12:39.016Z,2.25
2022-10-13T01:15:13.272Z,2.38
2022-10-13T01:17:53.841Z,1.95
2022-10-13T01:20:35.575Z,1.98
2022-10-13T01:23:05.156Z,2.03
2022-10-13T01:25:45.733Z,2.33
2022-10-13T01:28:30.802Z,2.00
2022-10-13T01:31:20.903Z,2.33
2022-10-13T01:33:58.556Z,1.88
2022-10-13T01:36:30.824Z,2.25
2022-10-13T01:39:07.402Z,2.28
2022-10-13T01:41:47.484Z,2.22
2022-10-13T01:44:29.356Z,1.58
2022-10-13T01:46:57.048Z,2.00
2022-10-13T01:49:31.360Z,2.03
2022-10-13T01:52:02.837Z,2.22
2022-10-13T01:54:29.418Z,2.00
2022-10-13T01:56:56.686Z,1.83
2022-10-13T01:59:25.943Z,1.98
2022-10-13T02:02:01.343Z,2.10
2022-10-13T02:04:57.012Z,2.38
2022-10-13T02:07:41.749Z,1.95
2022-10-13T02:10:17.316Z,1.85
2022-10-13T02:12:52.007Z,2.17
2022-10-13T02:15:22.913Z,2.42
2022-10-13T02:17:51.111Z,2.25
2022-10-13T02:20:19.940Z,1.88
2022-10-13T02:22:50.995Z,1.98
2022-10-13T02:25:17.696Z,2.60
2022-10-13T02:27:44.268Z,2.10
2022-10-13T02:30:24.491Z,2.00
2022-10-13T02:32:51.172Z,2.00
2022-10-13T02:35:17.828Z,2.35
2022-10-13T02:37:44.436Z,2.08
2022-10-13T02:40:12.034Z,2.22
2022-10-13T02:42:38.968Z,2.30
2022-10-13T02:45:06.405Z,1.80
2022-10-13T02:47:32.948Z,2.55
2022-10-13T02:49:59.507Z,1.67
2022-10-13T02:52:26.128Z,1.52
2022-10-13T02:54:52.694Z,1.90
2022-10-13T02:57:19.264Z,2.53
2022-10-13T02:59:45.823Z,2.20
2022-10-13T03:02:12.396Z,1.90
2022-10-13T03:04:38.972Z,1.75
2022-10-13T03:07:05.509Z,2.30
2022-10-13T03:09:32.155Z,2.28
2022-10-13T03:11:58.760Z,2.00
2022-10-13T03:14:25.426Z,2.22
2022-10-13T03:16:51.937Z,2.33
2022-10-13T03:19:18.448Z,2.67
2022-10-13T03:21:45.303Z,2.40
2022-10-13T03:24:11.854Z,2.00
2022-10-13T03:26:38.623Z,2.50
2022-10-13T03:29:05.163Z,3.00
2022-10-13T03:31:31.765Z,1.98
2022-10-13T03:33:58.293Z,2.45
2022-10-13T03:36:24.822Z,2.33
2022-10-13T03:38:51.376Z,2.45
2022-10-13T03:41:19.006Z,2.22
2022-10-13T03:43:45.736Z,1.85
2022-10-13T03:46:14.653Z,2.70
2022-10-13T03:48:41.648Z,2.30
2022-10-13T03:51:11.230Z,1.95
2022-10-13T03:53:37.904Z,2.50
2022-10-13T03:56:05.721Z,3.03
2022-10-13T03:58:32.361Z,2.17
2022-10-13T04:01:05.932Z,2.30
2022-10-13T04:03:33.742Z,2.67
2022-10-13T04:06:02.528Z,2.47
2022-10-13T04:11:21.920Z,2.75
2022-10-13T04:13:48.459Z,2.35
2022-10-13T04:16:16.387Z,2.72
2022-10-13T04:18:44.885Z,2.83
2022-10-13T04:21:14.105Z,2.00
2022-10-13T04:23:41.514Z,1.98
2022-10-13T04:26:14.413Z,2.15
2022-10-13T04:28:40.991Z,2.90
2022-10-13T04:31:07.572Z,2.45
2022-10-13T04:33:34.108Z,2.25
2022-10-13T04:36:06.919Z,2.03
2022-10-13T04:38:33.544Z,1.95
2022-10-13T04:41:06.120Z,2.60
2022-10-13T04:43:33.737Z,2.60
2022-10-13T04:46:02.180Z,2.42
2022-10-13T04:48:29.063Z,2.38
2022-10-13T04:51:09.016Z,2.40
2022-10-13T04:53:36.750Z,3.30
2022-10-13T04:56:05.481Z,2.47
2022-10-13T04:58:32.360Z,3.22
2022-10-13T05:00:59.421Z,3.15
2022-10-13T05:03:26.808Z,2.10
2022-10-13T05:05:53.734Z,2.45
2022-10-13T05:08:20.486Z,2.47
2022-10-13T05:10:59.092Z,2.47
2022-10-13T05:13:26.511Z,2.42
2022-10-13T05:15:53.131Z,2.17
2022-10-13T05:18:19.980Z,2.72
2022-10-13T05:20:46.729Z,3.15
2022-10-13T05:23:14.723Z,2.22
2022-10-13T05:25:41.410Z,2.65
2022-10-13T05:28:08.680Z,2.65
2022-10-13T05:30:35.571Z,2.70
2022-10-13T05:33:02.079Z,2.33
2022-10-13T05:35:28.808Z,2.95
2022-10-13T05:37:55.339Z,2.28
2022-10-13T05:40:21.916Z,3.38
2022-10-13T05:42:52.288Z,2.67
2022-10-13T05:45:21.445Z,2.45
2022-10-13T05:50:38.578Z,2.85
2022-10-13T05:53:05.138Z,2.38
2022-10-13T05:55:31.690Z,2.42
2022-10-13T05:57:58.247Z,2.47
2022-10-13T06:00:24.787Z,2.50
2022-10-13T06:03:07.158Z,2.28
2022-10-13T06:05:33.784Z,2.70
2022-10-13T06:08:00.809Z,3.28
2022-10-13T06:10:28.639Z,3.00
2022-10-13T06:12:55.163Z,2.67
2022-10-13T06:15:27.060Z,3.03
2022-10-13T06:17:54.660Z,2.85
2022-10-13T06:20:21.199Z,2.58
2022-10-13T06:22:50.017Z,3.10
2022-10-13T06:25:16.831Z,3.20
2022-10-13T06:27:43.479Z,2.97
2022-10-13T06:30:10.271Z,2.90
2022-10-13T06:32:36.810Z,2.33
2022-10-13T06:35:03.712Z,3.08
2022-10-13T06:37:30.585Z,3.13
2022-10-13T06:39:57.194Z,3.00
2022-10-13T06:42:23.830Z,3.55
2022-10-13T06:44:50.667Z,3.10
2022-10-13T06:47:17.384Z,3.30
2022-10-13T06:49:43.968Z,3.42
2022-10-13T06:52:10.544Z,3.10
2022-10-13T06:54:37.060Z,3.00
2022-10-13T06:57:06.447Z,2.78
2022-10-13T06:59:33.201Z,2.78
2022-10-13T07:01:59.876Z,3.15
2022-10-13T07:07:18.404Z,3.03
2022-10-13T07:09:44.937Z,3.72
2022-10-13T07:12:13.522Z,2.90
2022-10-13T07:14:43.021Z,3.60
2022-10-13T07:17:10.483Z,3.75
2022-10-13T07:19:37.008Z,3.33
2022-10-13T07:22:03.969Z,3.65
2022-10-13T07:24:30.612Z,3.38
2022-10-13T07:26:57.157Z,2.95
2022-10-13T07:29:23.723Z,4.07
2022-10-13T07:31:50.943Z,3.70
2022-10-13T07:34:17.464Z,3.67
2022-10-13T07:36:44.096Z,3.22
2022-10-13T07:39:10.760Z,4.20
2022-10-13T07:41:37.639Z,4.13
2022-10-13T07:44:04.406Z,3.88
2022-10-13T07:46:31.104Z,3.60
2022-10-13T07:48:58.051Z,4.30
2022-10-13T07:51:24.663Z,4.55
2022-10-13T07:53:51.333Z,3.75
2022-10-13T07:56:17.996Z,3.90
2022-10-13T07:58:47.135Z,3.90
2022-10-13T08:01:17.805Z,3.45
2022-10-13T08:03:48.928Z,3.83
2022-10-13T08:06:17.510Z,3.97
2022-10-13T08:08:44.136Z,3.90
2022-10-13T08:11:16.167Z,4.28
2022-10-13T08:13:50.312Z,4.32
2022-10-13T08:16:17.959Z,4.40
2022-10-13T08:18:45.904Z,5.40
2022-10-13T08:24:01.626Z,5.18
2022-10-13T08:26:28.988Z,5.05
2022-10-13T08:29:16.751Z,4.35
2022-10-13T08:31:45.175Z,4.53
2022-10-13T08:34:12.210Z,4.93
2022-10-13T08:36:38.955Z,4.57
2022-10-13T08:39:05.656Z,4.25
2022-10-13T08:41:38.087Z,5.38
2022-10-13T08:47:24.685Z,4.78
2022-10-13T08:49:52.151Z,5.20
2022-10-13T08:52:24.605Z,5.22
2022-10-13T08:54:53.232Z,5.47
2022-10-13T09:00:15.687Z,5.72
2022-10-13T09:05:49.548Z,6.65
2022-10-13T09:08:20.936Z,5.60
2022-10-13T09:10:51.642Z,6.55
2022-10-13T09:13:19.633Z,5.57
2022-10-13T09:15:48.417Z,5.60
2022-10-13T09:18:15.022Z,5.50
2022-10-13T09:20:41.790Z,5.88
2022-10-13T09:23:14.371Z,5.75
2022-10-13T09:25:46.791Z,6.10
2022-10-13T09:28:21.765Z,6.32
2022-10-13T09:30:56.190Z,5.38
2022-10-13T09:33:24.356Z,6.28
2022-10-13T09:35:56.883Z,6.40
2022-10-13T09:38:32.719Z,6.53
2022-10-13T09:41:25.700Z,6.43
2022-10-13T09:43:52.589Z,6.55
2022-10-13T09:46:46.520Z,6.80
2022-10-13T09:49:34.581Z,6.10
2022-10-13T09:52:11.835Z,6.63
2022-10-13T09:54:58.740Z,7.47
2022-10-13T09:57:35.810Z,7.30
2022-10-13T10:00:25.862Z,7.30
2022-10-13T10:03:01.823Z,7.03
2022-10-13T10:05:45.653Z,6.78
2022-10-13T10:09:01.406Z,6.90
2022-10-13T10:11:33.974Z,6.97
2022-10-13T10:14:12.508Z,6.60
2022-10-13T10:16:44.721Z,6.75
2022-10-13T10:19:47.903Z,6.40
2022-10-13T10:22:25.499Z,6.43
2022-10-13T10:25:29.758Z,6.30
2022-10-13T10:28:26.018Z,5.95
2022-10-13T10:31:25.193Z,7.15
2022-10-13T10:34:07.839Z,5.93
2022-10-13T10:36:38.573Z,6.43
2022-10-13T10:39:37.289Z,6.60
2022-10-13T10:42:18.776Z,6.20
2022-10-13T10:44:48.565Z,6.63
2022-10-13T10:47:23.819Z,7.20
2022-10-13T10:49:55.416Z,5.55
2022-10-13T10:52:29.321Z,7.47
2022-10-13T10:55:38.611Z,7.18
2022-10-13T10:58:40.862Z,6.72
2022-10-13T11:01:22.853Z,5.97
2022-10-13T11:03:56.514Z,7.05
2022-10-13T11:06:37.586Z,6.95
2022-10-13T11:09:05.638Z,6.05
2022-10-13T11:11:46.991Z,6.43
2022-10-13T11:14:29.643Z,6.93
2022-10-13T11:17:05.853Z,6.35
2022-10-13T11:19:37.397Z,5.63
2022-10-13T11:22:03.888Z,6.28
2022-10-13T11:24:38.581Z,5.63
2022-10-13T11:27:07.815Z,7.10
2022-10-13T11:29:51.500Z,6.55
2022-10-13T11:32:41.680Z,5.78
2022-10-13T11:35:08.308Z,6.22
2022-10-13T11:38:06.690Z,5.88
2022-10-13T11:41:11.870Z,6.38
2022-10-13T11:43:52.013Z,5.93
2022-10-13T11:46:35.563Z,5.85
2022-10-13T11:49:29.661Z,6.70
2022-10-13T11:52:17.625Z,5.78
2022-10-13T11:54:54.209Z,6.68
2022-10-13T11:57:26.294Z,6.90
2022-10-13T11:59:55.803Z,6.78
2022-10-13T12:02:25.394Z,7.35
2022-10-13T12:05:18.816Z,6.78
2022-10-13T12:07:48.428Z,7.50
2022-10-13T12:10:38.941Z,6.43
2022-10-13T12:13:05.681Z,7.20
2022-10-13T12:15:35.540Z,6.85
2022-10-13T12:18:03.379Z,5.50
2022-10-13T12:20:32.374Z,6.47
2022-10-13T12:22:58.967Z,6.50
2022-10-13T12:25:28.811Z,6.78
2022-10-13T12:27:58.569Z,6.47
2022-10-13T12:30:25.165Z,6.20
2022-10-13T12:32:54.063Z,7.65
2022-10-13T12:35:24.606Z,5.38
2022-10-13T12:37:52.706Z,6.55
2022-10-13T12:40:20.376Z,6.10
2022-10-13T12:42:48.524Z,7.10
2022-10-13T12:45:20.688Z,6.78
2022-10-13T12:47:51.075Z,5.95
2022-10-13T12:50:27.400Z,6.47
2022-10-13T12:53:10.505Z,6.35
2022-10-13T12:55:49.933Z,6.90
2022-10-13T12:58:31.922Z,7.18
2022-10-13T13:01:07.660Z,7.53
2022-10-13T13:03:37.118Z,7.43
2022-10-13T13:06:31.040Z,6.70
2022-10-13T13:09:27.481Z,6.95
2022-10-13T13:12:20.479Z,6.80
2022-10-13T13:14:52.273Z,7.13
2022-10-13T13:17:33.017Z,8.23
2022-10-13T13:20:21.375Z,7.10
2022-10-13T13:22:48.189Z,7.22
2022-10-13T13:25:15.540Z,7.68
2022-10-13T13:27:42.464Z,6.65
2022-10-13T13:30:14.172Z,7.22
2022-10-13T13:32:40.848Z,7.97
2022-10-13T13:35:08.025Z,7.50
2022-10-13T13:37:49.453Z,8.32
2022-10-13T13:40:20.308Z,9.25
2022-10-13T13:42:47.020Z,7.45
2022-10-13T13:45:15.540Z,8.57
2022-10-13T13:47:42.233Z,7.57
2022-10-13T13:50:24.319Z,8.32
2022-10-13T13:52:51.412Z,7.90
2022-10-13T13:55:18.567Z,7.47
2022-10-13T13:57:45.585Z,8.57
2022-10-13T14:00:13.680Z,8.07
2022-10-13T14:02:40.959Z,8.25
2022-10-13T14:05:07.747Z,7.93
2022-10-13T14:07:34.466Z,8.23
2022-10-13T14:10:02.359Z,7.60
2022-10-13T14:12:30.580Z,7.55
2022-10-13T14:14:58.362Z,6.40
2022-10-13T14:17:26.069Z,7.78
2022-10-13T14:19:52.886Z,7.32
2022-10-13T14:22:19.648Z,7.68
2022-10-13T14:24:46.179Z,8.50
2022-10-13T14:27:12.744Z,8.43
2022-10-13T14:29:39.288Z,7.35
2022-10-13T14:32:06.083Z,7.88
2022-10-13T14:34:33.505Z,6.63
2022-10-13T14:37:00.251Z,6.30
2022-10-13T14:39:26.824Z,8.50
2022-10-13T14:41:53.348Z,7.90
2022-10-13T14:44:19.893Z,7.43
2022-10-13T14:46:46.673Z,7.05
2022-10-13T14:49:13.339Z,7.53
2022-10-13T14:51:39.865Z,6.85
2022-10-13T14:54:06.915Z,7.35
2022-10-13T14:56:34.208Z,7.50
2022-10-13T14:59:03.431Z,7.80
2022-10-13T15:01:30.707Z,5.85
2022-10-13T15:03:57.343Z,8.75
2022-10-13T15:06:25.425Z,8.82
2022-10-13T15:08:52.480Z,7.88
2022-10-13T15:11:20.840Z,7.07
2022-10-13T15:14:00.045Z,8.13
2022-10-13T15:16:29.768Z,9.90
2022-10-13T15:18:56.695Z,8.20
2022-10-13T15:21:24.275Z,8.32
2022-10-13T15:23:50.928Z,7.75
2022-10-13T15:26:19.502Z,8.45
2022-10-13T15:28:49.355Z,8.23
2022-10-13T15:31:17.731Z,6.55
2022-10-13T15:33:46.475Z,8.60
2022-10-13T15:36:13.175Z,6.43
2022-10-13T15:38:40.179Z,7.28
2022-10-13T15:41:07.237Z,7.43
2022-10-13T15:43:34.318Z,7.35
2022-10-13T15:46:06.498Z,7.32
2022-10-13T15:48:33.963Z,6.45
2022-10-13T15:51:00.913Z,8.32
2022-10-13T15:53:29.157Z,8.05
2022-10-13T15:55:55.683Z,6.78
2022-10-13T15:58:22.661Z,7.00
2022-10-13T16:00:49.233Z,6.30
2022-10-13T16:03:17.968Z,6.82
2022-10-13T16:05:46.051Z,6.57
2022-10-13T16:08:13.205Z,6.95
2022-10-13T16:10:42.932Z,7.13
2022-10-13T16:13:13.723Z,10.23
2022-10-13T16:15:40.591Z,9.65
2022-10-13T16:18:08.214Z,8.27
2022-10-13T16:20:37.615Z,8.10
2022-10-13T16:23:05.192Z,7.95
2022-10-13T16:25:32.008Z,6.82
2022-10-13T16:27:59.401Z,7.22
2022-10-13T16:30:27.565Z,6.03
2022-10-13T16:32:54.158Z,8.57
2022-10-13T16:35:20.752Z,12.00
2022-10-13T16:37:47.586Z,10.10
2022-10-13T16:40:14.213Z,8.82
2022-10-13T16:42:42.378Z,7.55
2022-10-13T16:45:09.397Z,6.57
2022-10-13T16:47:35.913Z,6.15
2022-10-13T16:50:06.296Z,6.13
2022-10-13T16:52:33.006Z,5.80
2022-10-13T16:55:00.618Z,5.55
2022-10-13T16:57:29.538Z,6.43
2022-10-13T16:59:57.529Z,6.78
2022-10-13T17:02:24.086Z,6.78
2022-10-13T17:04:50.853Z,5.63
2022-10-13T17:07:17.525Z,6.03
2022-10-13T17:09:44.145Z,5.95
2022-10-13T17:12:10.817Z,5.95
2022-10-13T17:14:37.435Z,6.28
2022-10-13T17:17:04.160Z,6.93
2022-10-13T17:19:30.701Z,6.18
2022-10-13T17:21:57.255Z,5.80
2022-10-13T17:24:23.963Z,7.30
2022-10-13T17:26:50.495Z,6.13
2022-10-13T17:29:17.722Z,6.72
2022-10-13T17:31:44.322Z,6.07
2022-10-13T17:34:10.931Z,6.35
2022-10-13T17:36:37.624Z,5.63
2022-10-13T17:39:09.002Z,6.07
2022-10-13T17:41:35.861Z,6.22
2022-10-13T17:44:02.532Z,5.80
2022-10-13T17:46:39.413Z,6.90
2022-10-13T17:49:09.357Z,6.10
2022-10-13T17:51:36.126Z,5.50
2022-10-13T17:54:02.777Z,6.00
2022-10-13T17:56:30.204Z,6.25
2022-10-13T17:58:57.184Z,7.07
2022-10-13T18:01:26.605Z,6.15
2022-10-13T18:03:56.108Z,7.13
2022-10-13T18:06:23.067Z,7.15
2022-10-13T18:08:50.722Z,6.90
2022-10-13T18:11:19.626Z,6.90
2022-10-13T18:13:46.334Z,7.05
2022-10-13T18:16:18.525Z,7.60
2022-10-13T18:18:45.827Z,7.53
2022-10-13T18:21:14.675Z,8.18
2022-10-13T18:23:41.929Z,7.53
2022-10-13T18:26:11.996Z,8.27
2022-10-13T18:28:40.393Z,8.20
2022-10-13T18:31:13.238Z,7.97
2022-10-13T18:33:40.420Z,7.95
2022-10-13T18:36:23.629Z,7.82
2022-10-13T18:38:51.783Z,7.68
2022-10-13T18:41:22.001Z,9.57
2022-10-13T18:43:48.511Z,8.43
2022-10-13T18:46:15.042Z,7.78
2022-10-13T18:48:42.003Z,8.18
2022-10-13T18:51:13.892Z,8.45
2022-10-13T18:53:42.836Z,8.70
2022-10-13T18:56:16.710Z,10.27
2022-10-13T18:58:43.552Z,9.00
2022-10-13T19:01:12.377Z,7.95
2022-10-13T19:03:40.835Z,8.07
2022-10-13T19:06:10.277Z,9.90
2022-10-13T19:08:37.615Z,9.10
2022-10-13T19:11:15.854Z,8.80
2022-10-13T19:13:49.332Z,9.65
2022-10-13T19:16:18.668Z,8.38
2022-10-13T19:18:45.879Z,8.02
2022-10-13T19:21:13.055Z,8.80
2022-10-13T19:23:40.365Z,8.13
2022-10-13T19:26:15.812Z,9.10
2022-10-13T19:28:43.432Z,8.68
2022-10-13T19:31:18.002Z,9.00
2022-10-13T19:33:47.038Z,9.38
2022-10-13T19:36:27.586Z,9.48
2022-10-13T19:38:55.179Z,9.10
2022-10-13T19:41:22.586Z,10.23
2022-10-13T19:43:49.962Z,9.05
2022-10-13T19:46:17.188Z,8.40
2022-10-13T19:48:44.736Z,8.98
2022-10-13T19:51:12.476Z,8.93
2022-10-13T19:53:40.021Z,11.45
2022-10-13T19:56:07.609Z,9.90
2022-10-13T19:58:34.923Z,8.73
2022-10-13T20:01:04.562Z,9.85
2022-10-13T20:03:31.509Z,8.43
2022-10-13T20:05:58.136Z,9.43
2022-10-13T20:08:25.094Z,9.00
2022-10-13T20:10:51.688Z,9.45
2022-10-13T20:13:18.204Z,9.00
2022-10-13T20:15:44.729Z,9.55
2022-10-13T20:18:13.032Z,8.85
2022-10-13T20:20:41.306Z,9.38
2022-10-13T20:23:09.061Z,9.90
2022-10-13T20:25:37.475Z,11.50
2022-10-13T20:28:04.956Z,10.43
2022-10-13T20:30:32.322Z,10.18
2022-10-13T20:32:59.004Z,10.55
2022-10-13T20:35:25.682Z,10.43
2022-10-13T20:37:52.218Z,10.30
2022-10-13T20:40:19.045Z,10.82
2022-10-13T20:42:50.575Z,11.00
2022-10-13T20:45:17.768Z,10.80
2022-10-13T20:47:44.420Z,9.85
2022-10-13T20:50:11.107Z,10.52
2022-10-13T20:52:38.020Z,10.63
2022-10-13T20:55:04.752Z,11.23
2022-10-13T20:57:31.357Z,10.88
2022-10-13T20:59:57.865Z,11.35
2022-10-13T21:02:24.561Z,11.23
2022-10-13T21:04:51.234Z,11.05
2022-10-13T21:07:17.948Z,10.13
2022-10-13T21:09:44.644Z,10.85
2022-10-13T21:12:11.321Z,10.25
2022-10-13T21:14:38.660Z,11.15
2022-10-13T21:17:05.529Z,8.75
2022-10-13T21:19:32.084Z,10.85
2022-10-13T21:21:58.896Z,11.90
2022-10-13T21:24:25.444Z,10.70
2022-10-13T21:26:51.949Z,10.40
2022-10-13T21:29:18.473Z,10.15
2022-10-13T21:31:45.074Z,9.85
2022-10-13T21:34:12.630Z,9.85
2022-10-13T21:36:43.941Z,9.70
2022-10-13T21:39:10.541Z,10.52
2022-10-13T21:41:37.162Z,10.52
2022-10-13T21:44:04.155Z,10.65
2022-10-13T21:46:32.816Z,10.38
2022-10-13T21:49:01.297Z,10.23
2022-10-13T21:51:30.674Z,10.70
2022-10-13T21:54:08.894Z,10.98
2022-10-13T21:56:36.441Z,11.55
2022-10-13T21:59:03.478Z,10.90
2022-10-13T22:01:30.542Z,11.57
2022-10-13T22:03:59.733Z,10.75
2022-10-13T22:06:27.764Z,11.23
2022-10-13T22:08:56.765Z,10.77
2022-10-13T22:11:26.117Z,11.27
2022-10-13T22:13:53.152Z,10.95
2022-10-13T22:16:22.582Z,11.63
2022-10-13T22:18:52.021Z,10.90
2022-10-13T22:21:24.687Z,12.40
2022-10-13T22:23:51.258Z,12.13
2022-10-13T22:26:18.934Z,12.32
2022-10-13T22:28:47.971Z,11.00
2022-10-13T22:31:14.796Z,11.60
2022-10-13T22:33:43.199Z,11.02
2022-10-13T22:36:15.600Z,11.82
2022-10-13T22:38:43.485Z,12.48
2022-10-13T22:41:10.586Z,11.85
2022-10-13T22:43:37.440Z,12.32
2022-10-13T22:46:04.511Z,12.73
2022-10-13T22:48:33.930Z,12.27
2022-10-13T22:51:05.262Z,11.52
2022-10-13T22:53:32.835Z,11.43
2022-10-13T22:56:00.159Z,13.02
2022-10-13T22:58:27.033Z,13.65
2022-10-13T23:00:53.586Z,9.98
2022-10-13T23:03:20.155Z,11.13
2022-10-13T23:05:48.647Z,12.57
2022-10-13T23:08:15.792Z,12.27
2022-10-13T23:10:42.780Z,12.02
2022-10-13T23:13:09.320Z,10.50
2022-10-13T23:15:38.842Z,11.48
2022-10-13T23:18:06.216Z,11.07
2022-10-13T23:20:32.891Z,12.57
2022-10-13T23:22:59.441Z,11.82
2022-10-13T23:25:30.836Z,11.13
2022-10-13T23:27:57.968Z,11.68
2022-10-13T23:30:24.495Z,11.00
2022-10-13T23:32:51.042Z,12.00
2022-10-13T23:35:18.140Z,12.65
2022-10-13T23:37:44.675Z,10.85
2022-10-13T23:40:11.743Z,12.32
2022-10-13T23:42:38.316Z,11.55
2022-10-13T23:45:05.807Z,12.18
2022-10-13T23:47:33.544Z,11.85
2022-10-13T23:50:00.262Z,12.68
2022-10-13T23:52:26.862Z,11.77
2022-10-13T23:54:53.580Z,12.05
2022-10-13T23:57:20.391Z,12.00
2022-10-13T23:59:47.276Z,13.75
